Time;durP1;ratioP1;P1;durP2;ratioP2;P2;SDS_P1;SDS_P2;PMS_P1;PMS_P2;Temp;Humidity;BMP_temperature;BMP_pressure;BME280_temperature;BME280_humidity;BME280_pressure;Samples;Min_cycle;Max_cycle;Signal;HPM_P1;HPM_P2
2022/09/23 06:50:04;;;;;;;11.88;3.75;;;;;;;6.90;100.00;99170.97;5135337;27;20380;-75
2022/09/23 06:52:30;;;;;;;9.07;4.30;;;;;;;7.16;100.00;99170.06;5147973;27;20045;-75
2022/09/23 06:54:57;;;;;;;13.25;3.65;;;;;;;7.34;100.00;99172.69;5105511;27;20052;-75
2022/09/23 06:57:24;;;;;;;5.60;3.63;;;;;;;7.54;100.00;99181.38;5109699;27;20051;-75
2022/09/23 06:59:50;;;;;;;8.05;3.72;;;;;;;7.57;100.00;99148.59;5090540;27;20069;-76
2022/09/23 07:02:17;;;;;;;5.97;3.78;;;;;;;7.75;100.00;99147.59;5077069;28;20056;-75
2022/09/23 07:04:43;;;;;;;4.40;3.40;;;;;;;7.93;100.00;99163.66;5080636;27;20044;-76
2022/09/23 07:07:12;;;;;;;8.98;3.70;;;;;;;8.16;100.00;99161.16;5083854;27;20063;-76
2022/09/23 07:09:39;;;;;;;9.60;3.90;;;;;;;8.44;100.00;99163.53;5084311;27;20052;-76
2022/09/23 07:12:07;;;;;;;9.73;3.30;;;;;;;8.70;100.00;99167.88;5083586;27;20282;-76
2022/09/23 07:14:33;;;;;;;4.95;3.10;;;;;;;8.78;100.00;99155.16;5083113;27;20086;-76
2022/09/23 07:16:59;;;;;;;8.05;3.45;;;;;;;9.07;100.00;99171.88;5122903;27;20414;-76
2022/09/23 07:19:26;;;;;;;12.18;5.05;;;;;;;9.25;99.64;99172.47;5107676;27;20048;-76
2022/09/23 07:21:53;;;;;;;12.80;3.38;;;;;;;9.54;96.70;99181.81;5083182;27;20052;-76
2022/09/23 07:24:21;;;;;;;6.45;2.80;;;;;;;9.63;91.42;99169.88;5083126;28;20553;-76
2022/09/23 07:26:48;;;;;;;4.63;3.15;;;;;;;9.79;89.74;99160.81;5084081;28;20093;-76
2022/09/23 07:29:14;;;;;;;7.85;2.95;;;;;;;9.97;90.99;99162.38;5083803;28;20080;-76
2022/09/23 07:31:41;;;;;;;15.25;3.03;;;;;;;10.10;86.25;99168.03;5083828;28;20140;-76
2022/09/23 07:34:10;;;;;;;6.45;2.60;;;;;;;10.20;86.78;99157.75;5082595;27;20076;-76
2022/09/23 07:36:39;;;;;;;7.13;3.03;;;;;;;10.47;86.50;99174.56;5083667;27;20049;-76
2022/09/23 07:39:06;;;;;;;13.43;3.03;;;;;;;10.67;84.57;99182.19;5083704;28;20052;-76
2022/09/23 07:41:35;;;;;;;4.72;2.88;;;;;;;10.80;83.21;99180.50;5083904;27;20052;-76
2022/09/23 07:44:02;;;;;;;4.25;2.38;;;;;;;10.83;80.84;99173.03;5082542;27;20074;-76
2022/09/23 07:46:31;;;;;;;3.17;2.13;;;;;;;10.97;81.17;99161.28;5083707;28;20060;-76
2022/09/23 07:48:58;;;;;;;3.50;2.38;;;;;;;10.96;79.23;99149.59;5080264;27;20048;-76
2022/09/23 07:51:27;;;;;;;2.45;2.15;;;;;;;11.19;79.53;99167.69;5076140;27;20060;-76
2022/09/23 07:53:55;;;;;;;8.93;2.15;;;;;;;11.11;76.79;99155.03;5082663;27;20430;-76
2022/09/23 07:56:24;;;;;;;8.25;2.20;;;;;;;11.37;80.02;99172.72;5073213;27;20052;-76
2022/09/23 07:58:59;;;;;;;8.18;2.42;;;;;;;11.25;77.72;99150.59;5080856;27;20073;-77
2022/09/23 08:01:26;;;;;;;3.03;2.10;;;;;;;11.40;77.34;99164.19;5055224;28;20079;-76
2022/09/23 08:03:53;;;;;;;3.53;2.17;;;;;;;11.38;75.57;99154.50;5049275;28;20407;-76
2022/09/23 08:06:19;;;;;;;5.55;2.13;;;;;;;11.46;74.94;99138.91;5049958;28;20053;-77
2022/09/23 08:08:46;;;;;;;3.28;2.03;;;;;;;11.68;75.01;99167.03;5049667;28;20051;-76
2022/09/23 08:11:14;;;;;;;3.38;1.80;;;;;;;11.62;75.07;99148.75;5052775;27;20056;-76
2022/09/23 08:13:41;;;;;;;3.38;2.50;;;;;;;11.76;74.49;99163.34;5067369;27;20083;-76
2022/09/23 08:16:09;;;;;;;4.65;2.10;;;;;;;11.72;73.94;99148.41;5057647;27;20067;-76
2022/09/23 08:18:36;;;;;;;4.95;2.00;;;;;;;11.95;74.69;99166.50;5065824;27;20044;-76
2022/09/23 08:21:03;;;;;;;2.53;1.77;;;;;;;11.91;76.90;99157.84;5069503;28;20048;-76
2022/09/23 08:23:32;;;;;;;2.83;2.30;;;;;;;12.05;75.01;99175.19;5069235;28;20053;-76
2022/09/23 08:26:00;;;;;;;3.50;2.08;;;;;;;11.99;74.63;99160.47;5069246;28;20056;-76
2022/09/23 08:28:27;;;;;;;2.00;1.65;;;;;;;12.16;73.78;99176.56;5069033;27;20044;-76
2022/09/23 08:30:55;;;;;;;3.35;2.42;;;;;;;12.16;72.25;99152.88;5067052;27;20057;-76
2022/09/23 08:33:23;;;;;;;5.90;2.42;;;;;;;12.23;71.20;99154.81;5062583;28;20056;-76
2022/09/23 08:35:50;;;;;;;3.22;2.28;;;;;;;12.19;70.22;99166.13;5069506;28;20054;-76
2022/09/23 08:38:16;;;;;;;4.05;2.58;;;;;;;12.19;72.27;99168.84;5069348;28;20060;-76
2022/09/23 08:40:47;;;;;;;3.28;2.03;;;;;;;12.39;72.71;99158.13;5069440;28;20052;-76
2022/09/23 08:43:18;;;;;;;;;;;;;;;12.55;71.02;99169.75;5059701;27;20059;-76
2022/09/23 08:45:45;;;;;;;4.60;2.47;;;;;;;12.67;71.99;99164.63;5068706;27;20002;-76
2022/09/23 08:48:15;;;;;;;4.20;2.50;;;;;;;12.62;72.58;99148.84;5068748;27;20048;-76
2022/09/23 08:50:47;;;;;;;5.13;2.70;;;;;;;12.77;73.64;99146.03;5052716;28;20049;-77
2022/09/23 08:53:25;;;;;;;9.43;2.50;;;;;;;12.81;73.03;99141.00;5062013;28;20040;-76
2022/09/23 08:55:53;;;;;;;3.47;2.67;;;;;;;13.01;72.10;99160.25;5068392;27;20135;-76
2022/09/23 08:58:37;;;;;;;6.05;2.63;;;;;;;13.03;72.53;99150.78;5051088;28;20044;-77
2022/09/23 09:01:15;;;;;;;3.45;2.72;;;;;;;13.19;70.90;99157.81;5049061;28;20053;-76
2022/09/23 09:03:46;;;;;;;6.00;2.72;;;;;;;13.24;72.51;99154.47;5055413;28;20044;-76
2022/09/23 09:06:19;;;;;;;8.65;3.08;;;;;;;13.42;70.83;99159.41;5069047;28;20064;-76
2022/09/23 09:08:51;;;;;;;5.85;3.00;;;;;;;13.23;70.91;99139.13;5069289;28;20389;-76
2022/09/23 09:11:19;;;;;;;5.93;2.72;;;;;;;13.34;69.12;99148.66;5067213;27;20127;-76
2022/09/23 09:13:53;;;;;;;12.32;2.97;;;;;;;13.39;72.40;99146.19;5062915;27;20056;-77
2022/09/23 09:16:41;;;;;;;7.68;2.72;;;;;;;13.49;71.20;99143.91;5068561;27;20044;-77
2022/09/23 09:19:15;;;;;;;9.10;3.13;;;;;;;13.44;71.99;99125.41;5069152;27;20444;-77
2022/09/23 09:21:46;;;;;;;9.82;2.50;;;;;;;13.48;70.34;99128.56;5069062;27;20055;-76
2022/09/23 09:24:18;;;;;;;6.28;2.90;;;;;;;13.50;67.56;99123.72;5064943;27;20570;-77
2022/09/23 09:26:45;;;;;;;8.57;2.53;;;;;;;13.73;68.30;99142.50;5067845;27;20044;-76
2022/09/23 09:29:16;;;;;;;4.97;2.30;;;;;;;13.81;66.50;99130.53;5056016;27;20049;-76
2022/09/23 09:31:45;;;;;;;6.97;2.50;;;;;;;13.74;67.05;99116.84;5058408;28;20068;-77
2022/09/23 09:34:20;;;;;;;3.20;2.10;;;;;;;13.85;65.56;99142.75;5067767;27;20059;-76
2022/09/23 09:36:54;;;;;;;3.72;2.20;;;;;;;13.94;66.73;99143.38;5068330;27;20057;-76
2022/09/23 09:39:20;;;;;;;2.50;1.88;;;;;;;13.98;66.95;99134.59;5068117;28;20052;-76
2022/09/23 09:41:50;;;;;;;3.75;2.47;;;;;;;13.92;65.44;99105.31;5067426;27;20052;-76
2022/09/23 09:44:25;;;;;;;2.53;2.00;;;;;;;14.09;66.16;99133.13;5079585;27;20046;-76
2022/09/23 09:47:10;;;;;;;2.65;2.17;;;;;;;13.96;65.44;99109.34;5071294;27;20533;-77
2022/09/23 09:49:44;;;;;;;5.07;1.90;;;;;;;14.12;64.63;99127.25;5051057;28;20136;-77
2022/09/23 09:52:22;;;;;;;3.67;2.22;;;;;;;14.20;66.36;99117.97;5075059;27;20050;-76
2022/09/23 09:54:49;;;;;;;3.72;2.03;;;;;;;14.17;63.91;99115.66;5082739;27;20083;-77
2022/09/23 09:57:22;;;;;;;3.28;2.00;;;;;;;14.23;64.51;99106.63;5071125;27;20061;-77
2022/09/23 09:59:49;;;;;;;2.67;1.70;;;;;;;14.43;64.46;99117.56;5071211;27;20846;-76
2022/09/23 10:02:26;;;;;;;2.78;1.73;;;;;;;14.50;64.10;99109.34;5057088;27;20044;-76
2022/09/23 10:04:58;;;;;;;2.92;1.65;;;;;;;14.27;61.73;99090.63;5058505;27;20063;-76
2022/09/23 10:07:29;;;;;;;5.38;1.90;;;;;;;14.46;65.16;99094.41;5069038;27;20053;-76
2022/09/23 10:09:56;;;;;;;2.30;1.83;;;;;;;14.44;62.66;99083.69;5082504;27;20049;-77
2022/09/23 10:12:23;;;;;;;3.10;1.70;;;;;;;14.79;61.99;99110.81;5061096;28;20060;-76
2022/09/23 10:14:55;;;;;;;2.65;1.75;;;;;;;14.81;61.55;99108.72;5067722;28;20055;-76
2022/09/23 10:17:24;;;;;;;2.92;1.60;;;;;;;14.81;61.10;99092.28;5067716;27;20192;-76
2022/09/23 10:19:59;;;;;;;2.35;1.73;;;;;;;15.01;61.29;99094.97;5067588;27;20048;-77
2022/09/23 10:22:31;;;;;;;6.10;1.50;;;;;;;14.95;60.77;99076.66;5052432;27;20052;-77
2022/09/23 10:25:02;;;;;;;2.85;1.90;;;;;;;15.16;59.96;99094.72;5060709;27;20412;-77
2022/09/23 10:27:31;;;;;;;3.17;1.80;;;;;;;15.08;58.39;99094.94;5094499;27;20158;-76
2022/09/23 10:30:00;;;;;;;4.53;1.70;;;;;;;14.89;58.71;99077.53;5068362;27;20048;-77
2022/09/23 10:32:29;;;;;;;2.70;1.75;;;;;;;15.08;58.92;99073.03;5084570;27;20044;-76
2022/09/23 10:34:58;;;;;;;1.93;1.67;;;;;;;15.12;57.52;99065.25;5080242;27;20412;-77
2022/09/23 10:37:32;;;;;;;1.85;1.50;;;;;;;15.23;57.47;99083.72;5075853;27;20056;-77
2022/09/23 10:48:48;;;;;;;3.00;2.15;;;;;;;15.46;59.67;99055.81;5070085;27;20089;-77
2022/09/23 10:51:23;;;;;;;3.17;1.70;;;;;;;15.63;56.34;99078.03;5077305;27;20407;-77
2022/09/23 10:54:02;;;;;;;2.88;2.15;;;;;;;15.57;55.70;99060.56;5070140;27;20396;-77
2022/09/23 10:56:36;;;;;;;3.30;1.77;;;;;;;15.69;55.99;99046.19;5067781;27;20049;-77
2022/09/23 10:59:28;;;;;;;3.90;1.58;;;;;;;15.95;56.02;99072.59;5070645;27;20055;-76
2022/09/23 11:02:09;;;;;;;5.72;1.60;;;;;;;15.89;54.44;99046.06;5061397;28;20522;-77
2022/09/23 11:04:51;;;;;;;2.53;1.60;;;;;;;15.98;53.23;99052.13;5060256;28;20045;-77
2022/09/23 11:07:27;;;;;;;3.33;2.00;;;;;;;16.10;54.17;99053.91;5067333;28;20057;-76
2022/09/23 11:10:23;;;;;;;2.25;1.80;;;;;;;16.09;55.13;99060.47;5065947;27;20128;-76
2022/09/23 11:12:59;;;;;;;4.38;1.88;;;;;;;16.20;55.54;99058.03;5044272;28;20109;-76
2022/09/23 11:15:40;;;;;;;1.98;1.52;;;;;;;16.15;54.83;99053.22;5048422;27;20222;-76
2022/09/23 11:18:28;;;;;;;4.35;2.08;;;;;;;16.15;54.95;99050.47;5055273;28;20056;-76
2022/09/23 11:21:05;;;;;;;2.05;1.80;;;;;;;16.38;54.72;99046.25;5055764;28;20048;-76
2022/09/23 11:23:45;;;;;;;4.68;2.20;;;;;;;16.47;55.44;99017.50;5066163;28;20084;-76
2022/09/23 11:26:21;;;;;;;;;;;;;;;16.59;53.43;99043.13;5067025;27;20052;-76
2022/09/23 11:29:01;;;;;;;4.85;1.90;;;;;;;16.53;53.30;99018.47;5057686;27;19920;-76
2022/09/23 11:31:37;;;;;;;4.93;2.00;;;;;;;16.77;52.73;99030.44;5057463;27;20049;-76
2022/09/23 11:34:30;;;;;;;3.00;2.08;;;;;;;16.84;53.88;99014.75;5065801;27;20053;-76
2022/09/23 11:37:03;;;;;;;4.85;2.10;;;;;;;17.05;53.17;99029.13;5070385;27;20392;-76
2022/09/23 11:39:34;;;;;;;4.28;2.10;;;;;;;17.19;52.22;99021.53;5070264;28;20052;-77
2022/09/23 11:42:08;;;;;;;7.95;2.20;;;;;;;17.14;51.75;99017.56;5070062;28;20044;-77
2022/09/23 11:44:40;;;;;;;4.72;2.22;;;;;;;17.33;51.29;99020.28;5068076;27;20077;-77
2022/09/23 11:47:10;;;;;;;4.47;2.40;;;;;;;17.39;51.10;99013.88;5058390;27;20056;-76
2022/09/23 11:49:40;;;;;;;8.63;1.90;;;;;;;17.49;52.65;99018.78;5056982;28;20607;-76
2022/09/23 11:52:12;;;;;;;3.08;2.20;;;;;;;17.36;50.94;98997.84;5069627;28;20137;-77
2022/09/23 11:54:46;;;;;;;4.30;1.50;;;;;;;17.54;50.77;98994.19;5070658;27;20052;-77
2022/09/23 11:57:22;;;;;;;5.25;1.77;;;;;;;17.75;51.20;99003.81;5070086;28;20044;-77
2022/09/23 11:59:53;;;;;;;5.20;1.83;;;;;;;17.73;51.16;98997.69;5069629;27;20048;-77
2022/09/23 12:02:25;;;;;;;3.05;1.90;;;;;;;17.73;50.76;98983.94;5062958;27;20506;-77
2022/09/23 12:04:59;;;;;;;2.83;1.77;;;;;;;17.61;51.20;98989.41;5066864;27;20407;-77
2022/09/23 12:07:33;;;;;;;4.15;2.28;;;;;;;17.81;49.84;98988.25;5055835;27;20045;-77
2022/09/23 12:10:03;;;;;;;2.38;1.80;;;;;;;18.19;50.71;98998.03;5057982;27;20438;-77
2022/09/23 12:12:39;;;;;;;4.20;2.17;;;;;;;18.30;49.67;98999.13;5049345;28;20487;-77
2022/09/23 12:15:13;;;;;;;4.75;1.88;;;;;;;18.31;49.59;98984.28;5049970;28;20045;-77
2022/09/23 12:18:18;;;;;;;8.77;1.85;;;;;;;18.28;49.47;98969.09;5049796;28;20056;-77
2022/09/23 12:21:07;;;;;;;8.60;2.38;;;;;;;18.71;48.97;98997.28;5068420;27;20048;-77
2022/09/23 12:23:51;;;;;;;4.83;1.90;;;;;;;18.47;49.41;98975.31;5064175;28;20048;-77
2022/09/23 12:26:21;;;;;;;8.27;1.95;;;;;;;18.65;48.67;98960.56;5069741;28;20044;-77
2022/09/23 12:28:51;;;;;;;5.03;1.80;;;;;;;18.90;48.80;98967.69;5069979;27;20056;-77
2022/09/23 12:31:19;;;;;;;;;;;;;;;19.09;49.48;98985.72;5069985;28;20064;-77
2022/09/23 12:33:50;;;;;;;3.97;1.63;;;;;;;18.84;48.44;98976.91;5068858;28;20371;-77
2022/09/23 12:36:26;;;;;;;7.15;2.17;;;;;;;18.70;48.09;98971.66;5074448;27;20044;-77
2022/09/23 12:38:58;;;;;;;3.60;1.50;;;;;;;18.64;47.37;98977.28;5052330;27;20052;-77
2022/09/23 12:41:32;;;;;;;2.65;1.42;;;;;;;18.66;46.65;98969.63;5057591;27;20668;-77
2022/09/23 12:44:14;;;;;;;2.30;1.42;;;;;;;18.96;46.89;98980.47;5063439;27;20068;-76
2022/09/23 12:46:42;;;;;;;8.68;1.15;;;;;;;18.92;47.40;98951.75;5060751;28;20049;-77
2022/09/23 12:49:24;;;;;;;8.85;1.90;;;;;;;19.17;46.65;98972.63;5069179;28;20072;-76
2022/09/23 12:52:24;;;;;;;4.05;1.67;;;;;;;19.07;45.10;98952.06;5069087;28;20101;-77
2022/09/23 12:54:55;;;;;;;4.40;1.60;;;;;;;19.04;45.73;98958.03;5068394;27;20048;-77
2022/09/23 12:57:40;;;;;;;4.65;1.33;;;;;;;19.27;46.14;98954.38;5070623;27;20049;-77
2022/09/23 13:00:22;;;;;;;2.28;1.45;;;;;;;19.14;46.28;98954.66;5049333;28;20049;-77
2022/09/23 13:08:28;;;;;;;2.53;1.50;;;;;;;19.04;46.77;98924.16;5049145;27;20178;-77
2022/09/23 13:10:59;;;;;;;3.20;1.45;;;;;;;19.14;46.59;98945.56;5063675;27;20045;-77
2022/09/23 13:13:30;;;;;;;6.20;1.67;;;;;;;19.25;46.54;98926.22;5054165;28;20048;-77
2022/09/23 13:16:11;;;;;;;3.50;1.63;;;;;;;19.08;47.04;98931.69;5068963;28;20148;-77
2022/09/23 13:18:59;;;;;;;3.33;1.80;;;;;;;19.08;47.32;98917.91;5068774;28;20060;-77
2022/09/23 13:22:02;;;;;;;2.90;1.60;;;;;;;19.34;46.40;98939.59;5068664;28;20052;-77
2022/09/23 13:24:46;;;;;;;2.13;1.27;;;;;;;19.41;46.49;98924.56;5068212;27;20206;-77
2022/09/23 13:27:18;;;;;;;5.72;2.10;;;;;;;19.08;46.45;98898.63;5060446;27;20044;-77
2022/09/23 13:29:50;;;;;;;3.70;1.70;;;;;;;19.35;46.30;98933.00;5060494;28;20403;-76
2022/09/23 13:32:20;;;;;;;5.03;1.73;;;;;;;19.24;46.92;98923.69;5067657;28;20049;-77
2022/09/23 13:34:57;;;;;;;3.75;2.30;;;;;;;19.04;47.25;98915.91;5068701;28;20049;-77
2022/09/23 13:37:25;;;;;;;3.80;2.35;;;;;;;18.87;47.41;98929.63;5068766;27;20044;-77
2022/09/23 13:39:52;;;;;;;5.38;2.42;;;;;;;18.92;48.05;98932.47;5067626;27;20055;-77
2022/09/23 13:42:26;;;;;;;5.50;2.05;;;;;;;19.03;47.45;98923.34;5059367;27;20055;-77
2022/09/23 13:44:56;;;;;;;5.07;1.95;;;;;;;19.15;47.96;98930.69;5068268;27;20101;-77
2022/09/23 13:47:27;;;;;;;7.65;2.40;;;;;;;19.15;47.04;98914.16;5068034;27;20487;-76
2022/09/23 13:49:54;;;;;;;4.30;2.30;;;;;;;19.17;46.48;98912.00;5068314;28;20415;-77
2022/09/23 13:52:25;;;;;;;3.50;1.70;;;;;;;19.26;48.08;98905.84;5067657;28;20078;-77
2022/09/23 13:54:52;;;;;;;6.10;2.05;;;;;;;19.13;48.08;98891.53;5065815;27;20060;-77
2022/09/23 13:57:26;;;;;;;10.60;1.95;;;;;;;19.41;50.82;98913.53;5067711;28;20052;-77
2022/09/23 13:59:53;;;;;;;9.15;2.63;;;;;;;19.17;47.89;98889.97;5068308;28;20513;-77
2022/09/23 14:02:24;;;;;;;3.10;2.15;;;;;;;19.27;50.08;98915.78;5065907;28;20491;-77
2022/09/23 14:04:52;;;;;;;4.10;2.40;;;;;;;19.15;49.04;98906.75;5067027;27;20064;-77
2022/09/23 14:07:19;;;;;;;3.47;2.20;;;;;;;19.01;50.99;98884.16;5061403;27;20040;-77
2022/09/23 14:09:48;;;;;;;2.33;2.00;;;;;;;18.82;49.63;98885.41;5064740;28;20514;-77
2022/09/23 14:12:20;;;;;;;4.68;2.60;;;;;;;18.93;48.35;98914.88;5067712;27;20051;-77
2022/09/23 14:14:48;;;;;;;6.32;2.50;;;;;;;18.84;48.62;98886.84;5068089;27;20056;-77
2022/09/23 14:17:18;;;;;;;2.92;2.20;;;;;;;18.86;50.06;98909.53;5067898;28;20139;-77
2022/09/23 14:19:45;;;;;;;3.25;2.03;;;;;;;18.85;51.20;98905.09;5067311;27;20049;-77
2022/09/23 14:22:23;;;;;;;3.97;2.25;;;;;;;18.58;50.41;98883.59;5060797;27;20052;-76
2022/09/23 14:24:50;;;;;;;2.35;2.13;;;;;;;18.49;50.75;98885.06;5047613;28;20049;-77
2022/09/23 14:27:20;;;;;;;3.67;1.70;;;;;;;18.37;50.83;98889.75;5048067;28;20415;-76
2022/09/23 14:29:48;;;;;;;9.38;2.80;;;;;;;18.30;51.18;98900.06;5047889;28;20049;-77
2022/09/23 14:32:19;;;;;;;4.95;2.22;;;;;;;18.09;51.30;98882.25;5047243;28;20135;-77
2022/09/23 14:34:49;;;;;;;8.43;4.38;;;;;;;18.06;52.86;98885.50;5054221;28;20448;-77
2022/09/23 14:40:17;;;;;;;4.13;1.67;;;;;;;18.33;51.36;98886.63;5047627;28;20566;-77
2022/09/23 14:42:46;;;;;;;2.83;1.80;;;;;;;18.51;51.23;98854.53;5047016;28;20052;-77
2022/09/23 14:45:17;;;;;;;5.55;2.03;;;;;;;18.97;50.60;98880.25;5047642;28;20477;-77
2022/09/23 14:47:47;;;;;;;3.55;1.95;;;;;;;19.04;50.00;98853.34;5047417;28;20068;-77
2022/09/23 14:50:38;;;;;;;;;;;;;;;19.03;49.74;98879.25;5054780;27;20041;-77
2022/09/23 14:53:21;;;;;;;2.85;1.50;;;;;;;18.95;49.46;98854.03;5066249;28;19924;-77
2022/09/23 14:55:51;;;;;;;2.80;1.80;;;;;;;18.90;49.99;98854.75;5065604;27;20049;-77
2022/09/23 14:58:27;;;;;;;7.30;2.33;;;;;;;18.94;50.51;98853.19;5047809;28;20427;-77
2022/09/23 15:00:54;;;;;;;4.38;1.85;;;;;;;18.85;50.22;98846.41;5045707;28;20143;-77
2022/09/23 15:03:22;;;;;;;4.32;1.85;;;;;;;18.92;49.75;98861.72;5046840;28;20423;-77
2022/09/23 15:05:50;;;;;;;2.70;2.00;;;;;;;18.74;50.06;98832.44;5062461;27;20052;-77
2022/09/23 15:08:20;;;;;;;2.83;1.88;;;;;;;18.75;50.50;98861.63;5066978;28;20056;-77
2022/09/23 15:10:48;;;;;;;4.60;1.98;;;;;;;18.63;51.12;98866.34;5066295;27;20048;-77
2022/09/23 15:13:17;;;;;;;5.53;1.85;;;;;;;18.46;51.26;98855.28;5066354;27;20499;-77
2022/09/23 15:15:44;;;;;;;3.60;1.83;;;;;;;18.34;51.76;98843.47;5070115;27;20049;-77
2022/09/23 15:18:17;;;;;;;6.82;1.88;;;;;;;18.48;52.09;98860.53;5050872;28;20056;-77
2022/09/23 15:20:51;;;;;;;2.85;1.70;;;;;;;18.25;52.47;98843.00;5067568;27;20040;-77
2022/09/23 15:23:35;;;;;;;5.03;1.67;;;;;;;18.00;53.27;98840.53;5057699;27;20052;-79
2022/09/23 15:26:06;;;;;;;4.05;2.20;;;;;;;17.92;54.48;98833.50;5049321;28;20092;-80
2022/09/23 15:28:32;;;;;;;4.25;2.00;;;;;;;18.08;54.15;98836.56;5050309;28;20060;-81
2022/09/23 15:30:59;;;;;;;8.88;2.35;;;;;;;17.98;52.93;98839.94;5069942;27;20047;-77
2022/09/23 15:33:27;;;;;;;1.77;1.40;;;;;;;17.98;53.22;98862.78;5069391;27;20624;-76
2022/09/23 15:35:54;;;;;;;2.47;1.80;;;;;;;17.82;54.17;98835.97;5068657;27;20406;-76
2022/09/23 15:38:20;;;;;;;2.95;1.85;;;;;;;18.08;54.46;98858.56;5070097;27;20037;-77
2022/09/23 15:40:48;;;;;;;7.25;1.92;;;;;;;18.12;53.35;98862.53;5069904;28;20052;-76
2022/09/23 15:43:17;;;;;;;5.50;1.92;;;;;;;17.79;53.41;98837.28;5069775;28;20059;-77
2022/09/23 15:45:46;;;;;;;2.50;1.80;;;;;;;17.81;54.97;98862.66;5070208;28;20052;-76
2022/09/23 15:48:14;;;;;;;6.03;1.85;;;;;;;17.69;54.29;98843.41;5070560;28;20048;-76
2022/09/23 15:50:44;;;;;;;6.05;1.70;;;;;;;17.62;54.83;98842.69;5069133;27;20059;-76
2022/09/23 15:53:14;;;;;;;4.93;2.45;;;;;;;17.53;56.59;98841.38;5061275;28;20052;-76
2022/09/23 15:55:40;;;;;;;4.15;2.40;;;;;;;17.73;55.90;98865.75;5070068;27;20052;-76
2022/09/23 15:58:08;;;;;;;3.90;1.90;;;;;;;17.52;55.56;98859.78;5069998;28;20044;-76
2022/09/23 16:00:35;;;;;;;3.25;1.55;;;;;;;17.52;56.70;98864.41;5070158;28;20071;-77
2022/09/23 16:03:03;;;;;;;4.93;1.98;;;;;;;17.49;57.27;98878.63;5068108;28;20143;-76
2022/09/23 16:05:35;;;;;;;8.05;2.28;;;;;;;17.36;55.83;98845.88;5070821;27;20063;-76
2022/09/23 16:08:02;;;;;;;2.92;2.17;;;;;;;17.44;56.37;98870.28;5066994;27;20563;-76
2022/09/23 16:10:29;;;;;;;3.40;2.28;;;;;;;17.43;57.42;98866.69;5062977;28;20049;-76
2022/09/23 16:12:59;;;;;;;9.48;2.80;;;;;;;17.18;58.47;98850.41;5049084;28;20408;-76
2022/09/23 16:15:29;;;;;;;5.65;2.60;;;;;;;17.16;59.07;98836.03;5050062;28;20484;-76
2022/09/23 16:17:55;;;;;;;8.70;2.83;;;;;;;16.95;60.17;98835.53;5049908;28;20064;-76
2022/09/23 16:20:22;;;;;;;4.22;2.17;;;;;;;16.98;60.18;98840.56;5066773;27;20053;-76
2022/09/23 16:22:54;;;;;;;2.75;1.92;;;;;;;16.96;60.92;98833.63;5055078;28;20070;-76
2022/09/23 16:25:21;;;;;;;3.33;1.88;;;;;;;16.93;62.26;98854.13;5069600;27;20092;-76
2022/09/23 16:27:48;;;;;;;3.03;2.13;;;;;;;16.75;63.33;98846.78;5069404;27;20044;-76
2022/09/23 16:30:14;;;;;;;8.98;2.20;;;;;;;16.75;64.09;98843.19;5070206;27;20143;-76
2022/09/23 16:32:42;;;;;;;9.55;2.33;;;;;;;16.58;67.75;98832.88;5068593;27;20041;-76
2022/09/23 16:35:09;;;;;;;4.20;1.73;;;;;;;16.40;69.59;98832.91;5069264;27;20125;-76
2022/09/23 16:37:35;;;;;;;2.85;1.90;;;;;;;16.32;70.71;98849.66;5065063;28;20055;-76
2022/09/23 16:40:03;;;;;;;2.25;1.80;;;;;;;16.24;71.35;98848.06;5069540;28;20056;-76
2022/09/23 16:42:30;;;;;;;32.53;17.40;;;;;;;16.20;72.70;98844.97;5067337;28;20049;-77
2022/09/23 16:44:56;;;;;;;10.85;5.65;;;;;;;15.86;73.74;98819.81;5058875;27;20064;-76
2022/09/23 16:47:23;;;;;;;13.18;3.80;;;;;;;16.02;73.96;98850.47;5066840;27;20048;-77
2022/09/23 16:49:50;;;;;;;3.83;2.35;;;;;;;15.91;75.82;98855.63;5072778;27;20067;-76
2022/09/23 16:52:17;;;;;;;3.35;2.33;;;;;;;15.68;75.39;98837.06;5055075;28;20049;-77
2022/09/23 16:54:44;;;;;;;4.25;1.67;;;;;;;15.58;74.45;98829.38;5059634;27;20093;-77
2022/09/23 16:57:12;;;;;;;5.07;1.60;;;;;;;15.55;75.73;98829.81;5067778;27;20048;-77
2022/09/23 17:05:09;;;;;;;4.20;2.03;;;;;;;15.44;77.30;98854.38;5068890;27;20062;-76
2022/09/23 17:07:35;;;;;;;2.55;1.83;;;;;;;15.18;77.57;98853.53;5053121;28;20049;-77
2022/09/23 17:10:02;;;;;;;3.75;1.98;;;;;;;15.22;78.65;98866.56;5049312;27;20052;-76
2022/09/23 17:12:33;;;;;;;6.40;1.92;;;;;;;15.14;77.83;98864.06;5056668;27;20052;-76
2022/09/23 17:15:01;;;;;;;2.78;1.55;;;;;;;14.85;79.29;98849.97;5059503;27;20080;-76
2022/09/23 17:17:27;;;;;;;3.03;1.95;;;;;;;14.85;78.73;98855.44;5069117;28;20289;-76
2022/09/23 17:19:54;;;;;;;4.78;1.67;;;;;;;14.51;81.00;98854.75;5067914;27;20419;-77
2022/09/23 17:22:21;;;;;;;2.85;1.70;;;;;;;14.50;81.23;98854.97;5054435;28;20048;-76
2022/09/23 17:24:48;;;;;;;5.18;1.77;;;;;;;14.56;80.79;98864.19;5048610;28;20068;-76
2022/09/23 17:27:16;;;;;;;4.88;1.75;;;;;;;14.34;81.63;98835.25;5048811;28;20045;-76
2022/09/23 17:29:43;;;;;;;5.40;2.33;;;;;;;14.36;83.39;98842.41;5048833;27;20072;-76
2022/09/23 17:32:09;;;;;;;5.80;2.33;;;;;;;14.37;83.84;98844.94;5066509;28;20547;-76
2022/09/23 17:34:37;;;;;;;5.75;2.33;;;;;;;14.40;84.84;98863.63;5091677;27;20053;-77
2022/09/23 17:37:04;;;;;;;4.20;2.00;;;;;;;14.14;85.75;98859.13;5095703;27;20049;-76
2022/09/23 17:39:32;;;;;;;3.78;1.73;;;;;;;14.16;85.41;98870.69;5064940;27;20049;-76
2022/09/23 17:41:58;;;;;;;4.75;1.95;;;;;;;14.02;85.91;98845.28;5067123;28;20063;-76
2022/09/23 17:44:25;;;;;;;3.13;2.00;;;;;;;14.15;88.46;98858.06;5067823;28;20057;-76
2022/09/23 17:46:51;;;;;;;4.68;2.63;;;;;;;13.77;90.31;98840.50;5067705;28;20053;-77
2022/09/23 17:49:19;;;;;;;4.43;2.10;;;;;;;13.52;92.71;98843.09;5070071;28;20060;-76
2022/09/23 17:51:45;;;;;;;4.38;2.60;;;;;;;13.42;93.23;98832.56;5118654;27;20492;-76
2022/09/23 17:54:13;;;;;;;8.73;2.53;;;;;;;13.42;94.52;98862.63;5107302;27;20044;-76
2022/09/23 17:56:41;;;;;;;2.65;1.73;;;;;;;13.29;95.12;98838.00;5060473;27;20056;-76
2022/09/23 17:59:10;;;;;;;5.55;2.35;;;;;;;13.32;94.76;98843.06;5068293;28;20128;-77
2022/09/23 18:01:37;;;;;;;6.22;2.78;;;;;;;13.39;94.45;98860.31;5068246;28;20045;-76
2022/09/23 18:04:04;;;;;;;9.07;3.28;;;;;;;13.28;94.57;98866.38;5066384;27;20430;-76
2022/09/23 18:06:34;;;;;;;3.78;2.35;;;;;;;13.07;95.52;98842.84;5061231;28;20263;-76
2022/09/23 18:09:02;;;;;;;3.15;2.20;;;;;;;13.18;95.05;98869.50;5048225;27;20056;-76
2022/09/23 18:11:30;;;;;;;4.28;2.47;;;;;;;12.83;95.68;98838.84;5053158;27;20052;-76
2022/09/23 18:14:00;;;;;;;4.05;2.50;;;;;;;12.72;96.88;98840.28;5067029;27;20407;-76
2022/09/23 18:16:29;;;;;;;4.55;2.17;;;;;;;12.84;96.60;98838.63;5068484;27;20071;-76
2022/09/23 18:18:56;;;;;;;7.32;2.40;;;;;;;12.88;96.81;98841.78;5066775;27;20064;-76
2022/09/23 18:21:24;;;;;;;4.95;2.40;;;;;;;12.74;97.01;98841.75;5067806;28;20294;-76
2022/09/23 18:23:51;;;;;;;6.53;2.40;;;;;;;12.55;99.61;98831.63;5066836;28;20057;-76
2022/09/23 18:26:19;;;;;;;9.10;2.60;;;;;;;12.82;98.38;98858.97;5067453;28;20127;-76
2022/09/23 18:28:46;;;;;;;7.60;4.15;;;;;;;12.60;100.00;98840.06;5067361;27;20053;-76
2022/09/23 18:31:15;;;;;;;8.60;3.67;;;;;;;12.85;100.00;98850.38;5062921;27;20045;-76
2022/09/23 18:33:41;;;;;;;6.18;4.55;;;;;;;12.73;100.00;98842.78;5064499;27;20148;-76
2022/09/23 18:36:09;;;;;;;3.80;2.58;;;;;;;12.51;100.00;98823.03;5047739;28;20053;-76
2022/09/23 18:38:35;;;;;;;4.50;2.33;;;;;;;12.55;100.00;98842.53;5047544;28;20076;-76
2022/09/23 18:41:02;;;;;;;4.10;2.00;;;;;;;12.35;100.00;98834.31;5047683;28;20063;-76
2022/09/23 18:43:30;;;;;;;4.20;2.80;;;;;;;12.23;100.00;98820.44;5046700;28;20053;-76
2022/09/23 18:45:58;;;;;;;5.03;2.80;;;;;;;12.34;100.00;98824.44;5051470;27;20478;-76
2022/09/23 18:51:12;;;;;;;13.00;3.28;;;;;;;12.20;100.00;98827.13;5047430;28;20060;-76
2022/09/23 18:53:39;;;;;;;8.55;5.57;;;;;;;12.07;100.00;98846.13;5055824;27;20044;-76
2022/09/23 18:56:07;;;;;;;8.88;4.63;;;;;;;12.34;100.00;98854.44;5047479;27;20049;-76
2022/09/23 18:58:33;;;;;;;7.15;4.35;;;;;;;12.34;100.00;98857.16;5047676;28;20077;-76
2022/09/23 19:01:05;;;;;;;8.88;4.95;;;;;;;12.07;100.00;98827.06;5049297;27;20065;-77
2022/09/23 19:03:34;;;;;;;12.18;6.68;;;;;;;12.05;100.00;98829.16;5064109;27;20072;-76
2022/09/23 19:06:02;;;;;;;15.23;7.18;;;;;;;12.08;100.00;98817.03;5058360;28;20044;-77